Time;durP1;ratioP1;P1;durP2;ratioP2;P2;SDS_P1;SDS_P2;PMS_P1;PMS_P2;Temp;Humidity;BMP_temperature;BMP_pressure;BME280_temperature;BME280_humidity;BME280_pressure;Samples;Min_cycle;Max_cycle;Signal;HPM_P1;HPM_P2
2022/10/07 00:01:02;;;;;;;7.57;2.85;;;10.70;99.90;;;;;;5053213;28;20401;-90
2022/10/07 00:03:28;;;;;;;9.88;3.35;;;10.70;99.90;;;;;;5070580;28;20098;-90
2022/10/07 00:06:21;;;;;;;10.10;3.22;;;10.70;99.90;;;;;;5069988;28;20079;-89
2022/10/07 00:08:50;;;;;;;10.30;3.25;;;10.70;99.90;;;;;;5065899;28;20052;-89
2022/10/07 00:11:27;;;;;;;12.63;3.30;;;10.60;99.90;;;;;;5069525;28;20498;-90
2022/10/07 00:13:57;;;;;;;12.75;3.50;;;10.60;99.90;;;;;;5070471;28;20489;-90
2022/10/07 00:16:25;;;;;;;10.75;2.97;;;10.60;99.90;;;;;;5070112;28;20036;-89
2022/10/07 00:18:54;;;;;;;10.85;3.25;;;10.60;99.90;;;;;;5069808;28;20032;-89
2022/10/07 00:21:19;;;;;;;10.82;4.07;;;10.60;99.90;;;;;;5069823;28;20048;-89
2022/10/07 00:23:46;;;;;;;9.98;2.78;;;10.60;99.90;;;;;;5053306;28;20041;-89
2022/10/07 00:26:18;;;;;;;11.02;3.45;;;10.60;99.90;;;;;;5069704;28;20040;-90
2022/10/07 00:28:45;;;;;;;8.23;3.15;;;10.60;99.90;;;;;;5053223;28;20494;-90
2022/10/07 00:31:20;;;;;;;11.45;3.50;;;10.60;99.90;;;;;;5069646;28;20055;-90
2022/10/07 00:33:45;;;;;;;12.57;3.15;;;10.60;99.90;;;;;;5069674;28;20072;-89
2022/10/07 00:36:13;;;;;;;8.05;2.60;;;10.60;99.90;;;;;;5068413;28;20043;-90
2022/10/07 00:38:39;;;;;;;15.07;3.42;;;10.60;99.90;;;;;;5056558;28;20082;-90
2022/10/07 00:41:07;;;;;;;9.63;2.67;;;10.60;99.90;;;;;;5055887;28;20036;-89
2022/10/07 00:43:33;;;;;;;12.50;2.97;;;10.60;99.90;;;;;;5073511;28;20510;-90
2022/10/07 00:46:28;;;;;;;10.13;3.75;;;10.60;99.90;;;;;;5073295;28;20051;-89
2022/10/07 00:49:08;;;;;;;10.30;3.20;;;10.60;99.90;;;;;;5062433;28;20049;-90
2022/10/07 00:51:34;;;;;;;8.80;2.63;;;10.50;99.90;;;;;;5073097;28;20062;-89
2022/10/07 00:54:02;;;;;;;9.32;3.38;;;10.60;99.90;;;;;;5073402;28;20028;-90
2022/10/07 00:56:29;;;;;;;11.82;3.17;;;10.60;99.90;;;;;;5056582;28;20102;-89
2022/10/07 00:58:57;;;;;;;11.10;2.85;;;10.50;99.90;;;;;;5056685;28;20048;-90
2022/10/07 01:01:24;;;;;;;11.32;3.10;;;10.50;99.90;;;;;;5072959;28;20100;-90
2022/10/07 01:03:49;;;;;;;14.27;3.42;;;10.50;99.90;;;;;;5072785;28;20044;-90
2022/10/07 01:06:15;;;;;;;9.40;3.10;;;10.50;99.90;;;;;;5073096;28;20037;-90
2022/10/07 01:08:43;;;;;;;12.27;2.75;;;10.50;99.90;;;;;;5072912;28;20045;-89
2022/10/07 01:11:32;;;;;;;14.50;3.22;;;10.50;99.90;;;;;;5072423;28;20090;-90
2022/10/07 01:14:17;;;;;;;11.00;2.88;;;10.40;99.90;;;;;;5056406;28;20098;-89
2022/10/07 01:17:11;;;;;;;11.57;2.88;;;10.40;99.90;;;;;;5072921;28;20501;-90
2022/10/07 01:20:08;;;;;;;11.40;2.78;;;10.40;99.90;;;;;;5072542;28;20041;-89
2022/10/07 01:22:48;;;;;;;10.90;3.05;;;10.40;99.90;;;;;;5072585;28;20048;-89
2022/10/07 01:25:28;;;;;;;12.50;3.35;;;10.40;99.90;;;;;;5072867;28;20044;-89
2022/10/07 01:28:01;;;;;;;14.20;2.95;;;10.40;99.90;;;;;;5056368;28;20045;-89
2022/10/07 01:30:30;;;;;;;10.52;2.80;;;10.40;99.90;;;;;;5055862;28;20066;-90
2022/10/07 01:33:01;;;;;;;11.90;2.90;;;10.40;99.90;;;;;;5072009;28;20045;-90
2022/10/07 01:35:32;;;;;;;10.10;2.80;;;10.40;99.90;;;;;;5072792;28;20067;-89
2022/10/07 01:38:04;;;;;;;11.10;2.53;;;10.40;99.90;;;;;;5072634;28;20529;-89
2022/10/07 01:40:35;;;;;;;10.48;3.33;;;10.40;99.90;;;;;;5072246;28;20032;-90
2022/10/07 01:43:01;;;;;;;10.48;2.90;;;10.40;99.90;;;;;;5073760;28;20420;-89
2022/10/07 01:45:29;;;;;;;9.35;2.63;;;10.40;99.90;;;;;;5072590;28;20513;-89
2022/10/07 01:47:55;;;;;;;15.20;3.33;;;10.40;99.90;;;;;;5071554;28;20044;-89
2022/10/07 01:50:24;;;;;;;11.77;2.92;;;10.40;99.90;;;;;;5073395;28;20044;-89
2022/10/07 01:52:50;;;;;;;10.98;3.25;;;10.40;99.90;;;;;;5073360;28;20068;-90
2022/10/07 01:55:31;;;;;;;11.65;3.30;;;10.40;99.90;;;;;;5072051;28;20137;-89
2022/10/07 01:58:11;;;;;;;14.25;3.10;;;10.40;99.90;;;;;;5072209;28;20033;-89
2022/10/07 02:00:44;;;;;;;9.32;2.85;;;10.30;99.90;;;;;;5055433;28;20498;-89
2022/10/07 02:03:36;;;;;;;8.95;3.00;;;10.30;99.90;;;;;;5071658;28;20048;-90
2022/10/07 02:06:27;;;;;;;15.02;3.78;;;10.20;99.90;;;;;;5072178;28;20040;-90
2022/10/07 02:08:55;;;;;;;12.55;3.05;;;10.20;99.90;;;;;;5071695;28;20044;-90
2022/10/07 02:11:28;;;;;;;9.93;2.88;;;10.20;99.90;;;;;;5071543;28;20546;-89
2022/10/07 02:14:07;;;;;;;10.85;3.00;;;10.20;99.90;;;;;;5072039;28;20036;-89
2022/10/07 02:17:00;;;;;;;10.43;3.72;;;10.10;99.90;;;;;;5055226;28;20042;-90
2022/10/07 02:19:38;;;;;;;10.35;3.05;;;10.10;99.90;;;;;;5071519;28;20044;-90
2022/10/07 02:22:05;;;;;;;12.20;3.35;;;10.10;99.90;;;;;;5071405;28;20047;-90
2022/10/07 02:24:36;;;;;;;11.15;3.63;;;10.10;99.90;;;;;;5071385;28;20040;-89
2022/10/07 02:27:07;;;;;;;11.70;3.47;;;10.10;99.90;;;;;;5071601;28;20040;-89
2022/10/07 02:29:35;;;;;;;13.18;3.42;;;10.10;99.90;;;;;;5071654;28;20076;-89
2022/10/07 02:32:05;;;;;;;10.30;3.90;;;10.00;99.90;;;;;;5070880;28;20546;-89
2022/10/07 02:34:32;;;;;;;10.98;3.20;;;10.00;99.90;;;;;;5071823;28;20052;-89
2022/10/07 02:37:03;;;;;;;11.15;3.17;;;10.00;99.90;;;;;;5071380;28;20069;-89
2022/10/07 02:39:29;;;;;;;18.73;3.40;;;10.00;99.90;;;;;;5071039;28;20044;-90
2022/10/07 02:42:14;;;;;;;13.52;3.13;;;10.00;99.90;;;;;;5070998;28;20048;-89
2022/10/07 02:44:55;;;;;;;14.23;3.47;;;10.00;99.90;;;;;;5054799;28;20119;-90
2022/10/07 02:47:35;;;;;;;13.93;3.92;;;10.00;99.90;;;;;;5071014;28;20072;-90
2022/10/07 02:50:06;;;;;;;8.90;3.47;;;10.00;99.90;;;;;;5071209;28;20044;-89
2022/10/07 02:52:33;;;;;;;11.10;3.75;;;10.00;99.90;;;;;;5070556;28;20048;-89
2022/10/07 02:55:03;;;;;;;12.90;3.75;;;10.00;99.90;;;;;;5070770;28;20486;-90
2022/10/07 02:57:32;;;;;;;10.80;3.03;;;10.00;99.90;;;;;;5071541;28;20086;-90
2022/10/07 02:59:59;;;;;;;11.90;3.47;;;10.00;99.90;;;;;;5070770;28;20048;-89
2022/10/07 03:02:33;;;;;;;11.18;3.63;;;10.00;99.90;;;;;;5053792;28;20040;-90
2022/10/07 03:04:59;;;;;;;12.38;3.58;;;10.00;99.90;;;;;;5070966;28;20401;-89
2022/10/07 03:07:26;;;;;;;10.95;3.40;;;10.00;99.90;;;;;;5054062;28;20036;-89
2022/10/07 03:09:52;;;;;;;15.00;2.97;;;10.00;99.90;;;;;;5053853;28;20051;-90
2022/10/07 03:12:17;;;;;;;10.48;3.33;;;10.00;99.90;;;;;;5070515;28;20080;-90
2022/10/07 03:14:43;;;;;;;9.38;3.03;;;10.00;99.90;;;;;;5070844;28;20075;-89
2022/10/07 03:17:09;;;;;;;13.40;3.20;;;9.90;99.90;;;;;;5070541;28;20494;-89
2022/10/07 03:19:35;;;;;;;11.15;3.30;;;10.00;99.90;;;;;;5071014;28;20066;-89
2022/10/07 03:22:01;;;;;;;9.93;2.80;;;10.00;99.90;;;;;;5070327;28;20093;-89
2022/10/07 03:24:27;;;;;;;13.38;3.88;;;10.00;99.90;;;;;;5070405;28;20040;-89
2022/10/07 03:26:52;;;;;;;10.00;3.42;;;9.90;99.90;;;;;;5054316;28;20166;-90
2022/10/07 03:29:18;;;;;;;13.48;3.42;;;9.90;99.90;;;;;;5054031;28;20448;-89
2022/10/07 03:31:44;;;;;;;10.10;3.33;;;9.90;99.90;;;;;;5070068;28;20594;-89
2022/10/07 03:34:10;;;;;;;13.57;3.30;;;9.90;99.90;;;;;;5070374;28;20032;-89
2022/10/07 03:36:36;;;;;;;15.57;3.80;;;9.90;99.90;;;;;;5070500;28;20043;-89
2022/10/07 03:39:02;;;;;;;11.60;3.45;;;9.90;99.90;;;;;;5070036;28;20106;-90
2022/10/07 03:41:28;;;;;;;14.13;3.25;;;9.80;99.90;;;;;;5070274;28;20042;-89
2022/10/07 03:43:56;;;;;;;12.15;3.58;;;9.90;99.90;;;;;;5070665;28;20127;-89
2022/10/07 03:46:22;;;;;;;13.63;3.90;;;9.90;99.90;;;;;;5069986;28;20425;-89
2022/10/07 03:48:47;;;;;;;16.67;3.78;;;9.80;99.90;;;;;;5070250;28;20123;-89
2022/10/07 03:51:13;;;;;;;13.52;4.07;;;9.90;99.90;;;;;;5069849;28;20044;-89
2022/10/07 03:53:39;;;;;;;15.20;3.30;;;9.90;99.90;;;;;;5070333;28;20160;-89
2022/10/07 03:56:05;;;;;;;16.27;3.50;;;9.90;99.90;;;;;;5070439;28;20032;-89
2022/10/07 03:58:31;;;;;;;12.32;3.00;;;9.90;99.90;;;;;;5070275;28;20036;-89
2022/10/07 04:01:07;;;;;;;11.90;3.40;;;9.90;99.90;;;;;;5069921;28;20036;-89
2022/10/07 04:03:33;;;;;;;9.32;3.50;;;9.90;99.90;;;;;;5070345;28;20033;-90
2022/10/07 04:05:59;;;;;;;11.20;3.50;;;9.90;99.90;;;;;;5070270;28;20044;-89
2022/10/07 04:08:27;;;;;;;12.52;4.13;;;9.90;99.90;;;;;;5053142;28;20078;-89
2022/10/07 04:10:53;;;;;;;13.43;3.72;;;9.90;99.90;;;;;;5071297;28;20041;-89
2022/10/07 04:13:18;;;;;;;15.07;3.47;;;9.90;99.90;;;;;;5074300;28;20029;-89
2022/10/07 04:15:44;;;;;;;14.93;3.47;;;9.90;99.90;;;;;;5074017;28;20086;-89
2022/10/07 04:18:10;;;;;;;10.85;3.05;;;9.90;99.90;;;;;;5057322;28;20087;-89
2022/10/07 04:20:37;;;;;;;11.52;3.17;;;10.00;99.90;;;;;;5073965;28;20048;-90
2022/10/07 04:23:02;;;;;;;13.70;3.88;;;9.90;99.90;;;;;;5073624;28;20047;-90
2022/10/07 04:25:34;;;;;;;12.50;3.65;;;10.00;99.90;;;;;;5074045;28;20033;-89
2022/10/07 04:28:02;;;;;;;14.93;3.33;;;10.00;99.90;;;;;;5075307;28;20036;-89
2022/10/07 04:30:32;;;;;;;16.85;3.83;;;10.00;99.90;;;;;;5073678;28;20070;-89
2022/10/07 04:32:59;;;;;;;15.88;3.95;;;10.00;99.90;;;;;;5073492;28;20498;-89
2022/10/07 04:35:25;;;;;;;11.13;3.67;;;10.00;99.90;;;;;;5073876;28;20041;-90
2022/10/07 04:37:51;;;;;;;10.88;3.55;;;10.00;99.90;;;;;;5057072;28;20191;-89
2022/10/07 04:40:18;;;;;;;14.65;3.90;;;10.00;99.90;;;;;;5057282;28;20482;-89
2022/10/07 04:45:28;;;;;;;12.40;3.55;;;10.00;99.90;;;;;;5073440;28;20056;-89
2022/10/07 04:47:54;;;;;;;12.52;3.17;;;10.00;99.90;;;;;;5056937;28;20078;-90
2022/10/07 04:50:19;;;;;;;25.10;4.13;;;10.00;99.90;;;;;;5056700;28;20044;-89
2022/10/07 04:52:45;;;;;;;11.05;3.72;;;10.00;99.90;;;;;;5072805;28;20044;-89
2022/10/07 04:55:12;;;;;;;16.48;4.18;;;9.90;99.90;;;;;;5073427;28;20032;-90
2022/10/07 04:57:37;;;;;;;12.80;3.88;;;9.90;99.90;;;;;;5056551;28;20033;-89
2022/10/07 05:00:04;;;;;;;11.77;3.60;;;9.90;99.90;;;;;;5072977;28;20116;-90
2022/10/07 05:02:30;;;;;;;10.98;3.40;;;9.90;99.90;;;;;;5056412;28;20036;-89
2022/10/07 05:04:55;;;;;;;13.68;4.03;;;9.90;99.90;;;;;;5072907;28;20086;-90
2022/10/07 05:07:21;;;;;;;10.23;3.15;;;9.90;99.90;;;;;;5072652;28;20131;-89
2022/10/07 05:09:46;;;;;;;11.38;3.33;;;9.90;99.90;;;;;;5070532;28;20084;-89
2022/10/07 05:12:12;;;;;;;10.52;3.13;;;9.90;99.90;;;;;;5072229;28;20043;-90
2022/10/07 05:14:40;;;;;;;14.73;4.03;;;9.80;99.90;;;;;;5056015;28;20040;-89
2022/10/07 05:17:06;;;;;;;13.27;3.90;;;9.80;99.90;;;;;;5072550;28;20387;-89
2022/10/07 05:19:31;;;;;;;12.10;3.90;;;9.90;99.90;;;;;;5072484;28;20043;-90
2022/10/07 05:21:57;;;;;;;14.32;3.75;;;9.80;99.90;;;;;;5072139;28;20037;-89
2022/10/07 05:24:23;;;;;;;14.32;3.63;;;9.90;99.90;;;;;;5071069;28;20052;-89
2022/10/07 05:26:49;;;;;;;13.05;3.30;;;9.90;99.90;;;;;;5055967;28;20127;-89
2022/10/07 05:29:15;;;;;;;14.55;3.63;;;9.90;99.90;;;;;;5072399;28;20123;-89
2022/10/07 05:31:41;;;;;;;11.93;3.60;;;9.90;99.90;;;;;;5071744;28;20132;-89
2022/10/07 05:34:06;;;;;;;19.55;4.13;;;9.90;99.90;;;;;;5072210;28;20044;-90
2022/10/07 05:36:33;;;;;;;15.63;4.20;;;9.90;99.90;;;;;;5072092;28;20036;-90
2022/10/07 05:38:59;;;;;;;13.38;4.03;;;9.90;99.90;;;;;;5055162;28;20047;-89
2022/10/07 05:41:27;;;;;;;13.77;3.55;;;9.90;99.90;;;;;;5071975;28;20048;-89
2022/10/07 05:43:52;;;;;;;12.55;3.88;;;9.90;99.90;;;;;;5072138;28;20123;-90
2022/10/07 05:46:19;;;;;;;19.90;4.07;;;9.90;99.90;;;;;;5054864;28;20071;-89
2022/10/07 05:48:52;;;;;;;15.63;3.75;;;9.90;99.90;;;;;;5055462;28;20484;-90
2022/10/07 05:51:19;;;;;;;17.77;4.28;;;9.90;99.90;;;;;;5054721;28;20052;-89
2022/10/07 05:53:45;;;;;;;11.30;4.07;;;9.90;99.90;;;;;;5071781;28;20040;-90
2022/10/07 05:56:14;;;;;;;18.50;3.90;;;9.90;99.90;;;;;;5071834;28;20035;-90
2022/10/07 05:58:41;;;;;;;17.25;4.03;;;9.90;99.90;;;;;;5071977;28;20456;-89
2022/10/07 06:01:13;;;;;;;14.48;3.65;;;9.90;99.90;;;;;;5071474;28;20099;-90
2022/10/07 06:03:39;;;;;;;14.75;3.40;;;9.90;99.90;;;;;;5071736;28;20052;-89
2022/10/07 06:06:05;;;;;;;14.80;3.78;;;10.00;99.90;;;;;;5071493;28;20036;-89
2022/10/07 06:08:30;;;;;;;12.10;4.35;;;9.90;99.90;;;;;;5070702;28;20036;-89
2022/10/07 06:13:49;;;;;;;14.23;3.95;;;10.00;99.90;;;;;;5071015;28;20513;-89
2022/10/07 06:16:15;;;;;;;15.13;3.88;;;10.00;99.90;;;;;;5069682;28;20111;-90
2022/10/07 06:18:40;;;;;;;14.73;3.88;;;10.00;99.90;;;;;;5054620;28;20068;-89
2022/10/07 06:21:06;;;;;;;13.32;3.63;;;10.00;99.90;;;;;;5054107;28;20041;-89
2022/10/07 06:23:32;;;;;;;11.98;3.58;;;10.00;99.90;;;;;;5070366;28;20085;-89
2022/10/07 06:26:04;;;;;;;13.60;3.38;;;10.00;99.90;;;;;;5071259;28;20418;-89
2022/10/07 06:28:35;;;;;;;16.38;3.78;;;10.00;99.90;;;;;;5072357;28;20039;-89
2022/10/07 06:31:06;;;;;;;12.68;3.08;;;10.10;99.90;;;;;;5069808;28;20041;-89
2022/10/07 06:33:32;;;;;;;13.45;3.67;;;10.10;99.90;;;;;;5071029;28;20514;-89
2022/10/07 06:36:02;;;;;;;13.93;3.58;;;10.10;99.90;;;;;;5070595;28;20178;-89
2022/10/07 06:38:27;;;;;;;15.20;4.20;;;10.10;99.90;;;;;;5070665;28;20498;-89
2022/10/07 06:41:00;;;;;;;17.08;3.70;;;10.20;99.90;;;;;;5069862;28;20084;-89
2022/10/07 06:43:30;;;;;;;17.35;4.00;;;10.20;99.90;;;;;;5052085;28;20033;-89
2022/10/07 06:46:02;;;;;;;15.10;3.90;;;10.20;99.90;;;;;;5069069;28;20074;-89
2022/10/07 06:48:29;;;;;;;;;;;10.30;99.90;;;;;;5053684;28;20044;-89
2022/10/07 06:50:57;;;;;;;14.40;3.67;;;10.30;99.90;;;;;;5053453;28;19916;-89
2022/10/07 06:53:24;;;;;;;17.50;3.80;;;10.40;99.90;;;;;;5070378;28;20047;-89
2022/10/07 06:55:50;;;;;;;11.38;3.60;;;10.40;99.90;;;;;;5070478;28;20044;-89
2022/10/07 06:58:17;;;;;;;15.77;3.72;;;10.50;99.90;;;;;;5069963;28;20039;-89
2022/10/07 07:00:47;;;;;;;13.57;3.40;;;10.50;99.90;;;;;;5069945;28;20040;-89
2022/10/07 07:03:13;;;;;;;17.05;3.85;;;10.60;99.90;;;;;;5070262;28;20070;-89
2022/10/07 07:05:39;;;;;;;14.77;3.58;;;10.70;99.90;;;;;;5053938;28;20033;-89
2022/10/07 07:08:04;;;;;;;16.05;3.38;;;10.70;99.90;;;;;;5070067;28;20044;-89
2022/10/07 07:10:35;;;;;;;11.85;3.13;;;10.80;99.90;;;;;;5070498;28;20406;-89
2022/10/07 07:13:01;;;;;;;12.90;3.97;;;10.80;99.90;;;;;;5069742;28;20053;-89
2022/10/07 07:15:27;;;;;;;18.20;3.58;;;10.80;99.90;;;;;;5070191;28;20044;-89
2022/10/07 07:17:53;;;;;;;16.23;3.90;;;10.80;99.90;;;;;;5068820;28;20043;-89
2022/10/07 07:20:18;;;;;;;10.57;3.58;;;10.80;99.90;;;;;;5070543;28;20036;-89
2022/10/07 07:22:44;;;;;;;15.68;3.85;;;10.80;99.90;;;;;;5069616;28;20549;-89
2022/10/07 07:25:10;;;;;;;16.58;3.83;;;10.80;99.90;;;;;;5070221;28;20036;-89
2022/10/07 07:27:36;;;;;;;16.05;4.32;;;10.90;99.90;;;;;;5053453;28;20036;-90
2022/10/07 07:30:02;;;;;;;11.73;3.50;;;10.90;99.90;;;;;;5069901;28;20041;-89
2022/10/07 07:32:29;;;;;;;19.42;4.13;;;10.90;99.90;;;;;;5069452;28;20044;-90
2022/10/07 07:34:55;;;;;;;15.90;3.97;;;10.90;99.90;;;;;;5070371;28;20059;-90
2022/10/07 07:37:21;;;;;;;14.88;3.55;;;10.90;99.90;;;;;;5069941;28;20037;-90
2022/10/07 07:39:47;;;;;;;10.90;3.00;;;11.00;99.90;;;;;;5069965;28;20044;-89
2022/10/07 07:42:12;;;;;;;13.65;3.50;;;11.00;99.90;;;;;;5069502;28;20037;-90
2022/10/07 07:44:38;;;;;;;17.42;3.55;;;11.10;99.90;;;;;;5069820;28;20089;-89
2022/10/07 07:47:05;;;;;;;17.83;4.40;;;11.10;99.90;;;;;;5069117;28;20033;-90
2022/10/07 07:49:32;;;;;;;10.82;3.00;;;11.20;99.90;;;;;;5069904;28;20047;-89
2022/10/07 07:51:59;;;;;;;16.20;3.25;;;11.20;99.90;;;;;;5069139;28;20036;-90
2022/10/07 07:54:26;;;;;;;13.75;3.83;;;11.30;99.90;;;;;;5069946;28;20082;-90
2022/10/07 07:56:56;;;;;;;13.77;3.40;;;11.40;99.90;;;;;;5069697;28;20071;-90
2022/10/07 07:59:24;;;;;;;12.77;3.33;;;11.50;99.90;;;;;;5052799;28;20032;-90
2022/10/07 08:01:50;;;;;;;17.90;4.10;;;11.50;99.90;;;;;;5069912;28;20048;-89
2022/10/07 08:04:15;;;;;;;18.63;5.22;;;11.60;99.90;;;;;;5070075;28;20106;-90
2022/10/07 08:06:42;;;;;;;16.80;4.07;;;11.80;99.90;;;;;;5067975;28;20508;-90
2022/10/07 08:09:08;;;;;;;16.58;3.65;;;11.80;99.90;;;;;;5069304;28;20036;-90
2022/10/07 08:11:34;;;;;;;15.52;4.25;;;11.90;99.90;;;;;;5069508;28;20086;-90
2022/10/07 08:14:00;;;;;;;14.30;3.45;;;12.00;99.90;;;;;;5070158;28;20520;-90
2022/10/07 08:16:27;;;;;;;15.82;4.45;;;12.10;99.90;;;;;;5053430;28;20056;-90
2022/10/07 08:18:55;;;;;;;14.27;3.60;;;12.20;99.90;;;;;;5070141;28;20086;-90
2022/10/07 08:21:23;;;;;;;16.00;3.30;;;12.30;99.90;;;;;;5069500;28;20447;-90
2022/10/07 08:23:56;;;;;;;14.88;3.78;;;12.40;99.90;;;;;;5070041;28;20120;-90
2022/10/07 08:26:23;;;;;;;10.32;2.72;;;12.40;99.90;;;;;;5050863;28;20097;-89
2022/10/07 08:28:48;;;;;;;20.08;3.58;;;12.50;99.90;;;;;;5052793;28;20448;-89
2022/10/07 08:31:16;;;;;;;15.73;3.78;;;12.50;99.90;;;;;;5069229;28;20557;-90
2022/10/07 08:33:43;;;;;;;15.27;3.45;;;12.60;99.90;;;;;;5069556;28;20086;-90
2022/10/07 08:36:31;;;;;;;20.50;3.92;;;12.70;99.90;;;;;;5052425;28;20036;-90
2022/10/07 08:38:57;;;;;;;12.25;3.20;;;12.70;99.90;;;;;;5053082;28;20049;-90
2022/10/07 08:41:31;;;;;;;18.58;4.00;;;12.80;99.90;;;;;;5069228;28;20032;-90
2022/10/07 08:44:05;;;;;;;14.60;4.00;;;12.80;99.90;;;;;;5069428;28;20052;-90
2022/10/07 08:46:34;;;;;;;16.75;4.57;;;12.90;99.90;;;;;;5069217;28;20036;-90
2022/10/07 08:49:05;;;;;;;15.15;3.63;;;13.00;99.90;;;;;;5069213;28;20129;-90
2022/10/07 08:51:34;;;;;;;16.63;3.75;;;13.00;99.90;;;;;;5068823;28;20612;-90
2022/10/07 08:54:00;;;;;;;17.17;4.88;;;13.10;99.90;;;;;;5052589;28;20040;-89
2022/10/07 08:56:28;;;;;;;14.80;3.72;;;13.30;99.90;;;;;;5069353;28;20037;-90
2022/10/07 08:59:00;;;;;;;17.70;4.60;;;13.50;99.90;;;;;;5054886;28;20082;-90
2022/10/07 09:01:48;;;;;;;14.75;3.70;;;13.60;99.90;;;;;;5072777;28;20044;-90
2022/10/07 09:04:33;;;;;;;17.13;3.28;;;13.60;99.90;;;;;;5072522;28;20052;-90
2022/10/07 09:07:16;;;;;;;15.18;4.50;;;13.70;99.90;;;;;;5072895;28;20051;-90
2022/10/07 09:09:55;;;;;;;19.30;4.07;;;13.80;99.90;;;;;;5072531;28;20076;-90
2022/10/07 09:12:41;;;;;;;14.57;4.40;;;13.90;99.90;;;;;;5072103;28;20036;-90
2022/10/07 09:15:18;;;;;;;15.23;3.53;;;13.90;99.90;;;;;;5072606;28;20079;-90
2022/10/07 09:17:56;;;;;;;14.35;3.15;;;14.00;99.90;;;;;;5072849;28;20067;-90
2022/10/07 09:20:30;;;;;;;14.45;4.28;;;14.00;99.90;;;;;;5072370;28;20398;-90
2022/10/07 09:22:57;;;;;;;14.80;2.92;;;14.10;99.90;;;;;;5055622;28;20517;-90
2022/10/07 09:25:26;;;;;;;17.10;3.97;;;14.20;99.90;;;;;;5056052;28;20496;-90
2022/10/07 09:27:53;;;;;;;14.93;4.00;;;14.40;99.90;;;;;;5071187;28;20055;-90
2022/10/07 09:30:20;;;;;;;17.05;4.13;;;14.50;99.90;;;;;;5072564;28;20058;-91
2022/10/07 09:32:49;;;;;;;14.88;3.08;;;14.60;99.90;;;;;;5072040;28;20111;-90
2022/10/07 09:35:17;;;;;;;18.85;4.15;;;14.60;99.90;;;;;;5071868;28;20043;-90
2022/10/07 09:37:58;;;;;;;16.05;3.67;;;14.70;99.90;;;;;;5072135;28;20493;-90
2022/10/07 09:40:31;;;;;;;13.95;3.10;;;14.80;99.90;;;;;;5053297;28;20090;-90
2022/10/07 09:42:57;;;;;;;16.23;3.05;;;14.80;99.90;;;;;;5071590;28;20123;-90
2022/10/07 09:45:27;;;;;;;16.50;3.85;;;14.80;99.90;;;;;;5055429;28;20040;-90
2022/10/07 09:48:02;;;;;;;16.80;3.75;;;15.00;99.90;;;;;;5071987;28;20509;-90
2022/10/07 09:50:40;;;;;;;13.48;3.75;;;15.10;99.90;;;;;;5070025;28;20418;-90
2022/10/07 09:53:23;;;;;;;15.52;2.75;;;15.20;99.90;;;;;;5052776;28;20497;-90
2022/10/07 09:55:51;;;;;;;13.30;3.40;;;15.20;99.90;;;;;;5045061;28;20399;-90
2022/10/07 09:58:19;;;;;;;11.93;2.47;;;15.30;99.90;;;;;;5055194;28;20028;-91
2022/10/07 10:00:48;;;;;;;14.77;3.70;;;15.40;99.90;;;;;;5072192;28;20519;-90
2022/10/07 10:03:14;;;;;;;14.18;3.40;;;15.40;99.90;;;;;;5071896;28;20048;-91
2022/10/07 10:05:50;;;;;;;14.85;3.97;;;15.50;99.90;;;;;;5052992;28;20052;-89
2022/10/07 10:08:16;;;;;;;18.05;3.53;;;15.60;99.90;;;;;;5054961;28;20055;-90
2022/10/07 10:10:55;;;;;;;15.88;3.75;;;15.70;99.90;;;;;;5070667;28;20509;-90
2022/10/07 10:13:26;;;;;;;15.95;3.53;;;15.70;99.90;;;;;;5054328;28;20041;-90
2022/10/07 10:15:51;;;;;;;15.70;3.60;;;15.80;99.90;;;;;;5054738;28;20502;-91
2022/10/07 10:18:36;;;;;;;13.90;2.85;;;15.90;99.90;;;;;;5070867;28;20048;-91
2022/10/07 10:21:20;;;;;;;17.65;4.15;;;15.90;99.90;;;;;;5054671;28;20099;-90
2022/10/07 10:23:57;;;;;;;14.80;2.50;;;16.00;99.90;;;;;;5071250;28;20070;-90
2022/10/07 10:26:34;;;;;;;14.52;3.22;;;16.10;99.90;;;;;;5070890;28;20032;-91
2022/10/07 10:29:24;;;;;;;13.48;3.50;;;16.20;99.90;;;;;;5071254;28;20048;-91
2022/10/07 10:32:01;;;;;;;13.93;3.65;;;16.30;99.90;;;;;;5054334;28;20095;-91
2022/10/07 10:34:41;;;;;;;13.20;3.50;;;16.40;99.90;;;;;;5070815;28;20040;-90
2022/10/07 10:37:41;;;;;;;14.07;3.60;;;16.50;99.90;;;;;;5054431;28;20045;-90
2022/10/07 10:40:19;;;;;;;13.80;3.30;;;16.50;99.90;;;;;;5052612;28;20040;-90
2022/10/07 10:43:01;;;;;;;15.68;4.22;;;16.60;99.90;;;;;;5070360;28;20041;-91
2022/10/07 10:45:39;;;;;;;12.98;2.72;;;16.60;99.90;;;;;;5054098;28;20036;-90
2022/10/07 10:48:05;;;;;;;13.13;3.20;;;16.60;99.90;;;;;;5070783;28;20056;-90
2022/10/07 10:50:56;;;;;;;16.92;3.97;;;16.70;99.90;;;;;;5070831;28;20410;-91
2022/10/07 10:53:39;;;;;;;13.95;3.60;;;16.90;99.90;;;;;;5070632;28;20050;-90
2022/10/07 10:56:28;;;;;;;15.55;3.90;;;17.00;99.90;;;;;;5070439;28;20040;-90
2022/10/07 10:59:02;;;;;;;15.27;3.95;;;17.20;99.90;;;;;;5053898;28;20040;-90
2022/10/07 11:01:35;;;;;;;18.35;4.65;;;17.30;99.90;;;;;;5053908;28;20041;-91
2022/10/07 11:04:40;;;;;;;12.13;3.35;;;17.30;99.90;;;;;;5070317;28;20565;-91
2022/10/07 11:07:20;;;;;;;15.75;4.00;;;17.30;99.90;;;;;;5070525;28;20045;-91
2022/10/07 11:09:54;;;;;;;11.68;3.42;;;17.30;99.90;;;;;;5070354;28;20076;-90
2022/10/07 11:12:28;;;;;;;14.27;3.50;;;17.30;99.90;;;;;;5053251;28;20072;-91
2022/10/07 11:15:00;;;;;;;15.77;4.03;;;17.30;99.90;;;;;;5070460;28;20037;-90
2022/10/07 11:17:30;;;;;;;14.10;3.05;;;17.40;99.90;;;;;;5068934;28;20040;-90
2022/10/07 11:20:19;;;;;;;14.63;4.25;;;17.40;99.90;;;;;;5070515;28;20475;-91
2022/10/07 11:22:55;;;;;;;12.77;3.60;;;17.50;99.90;;;;;;5070227;28;20047;-91
2022/10/07 11:25:21;;;;;;;14.13;3.35;;;17.60;99.90;;;;;;5053694;28;20044;-90
2022/10/07 11:27:50;;;;;;;17.50;3.95;;;17.60;99.90;;;;;;5068287;28;20041;-91
2022/10/07 11:30:19;;;;;;;15.13;3.95;;;17.70;99.90;;;;;;5069595;28;20119;-90
2022/10/07 11:33:04;;;;;;;15.15;3.80;;;17.70;99.90;;;;;;5052277;28;20482;-91
2022/10/07 11:35:47;;;;;;;14.02;3.60;;;17.70;99.90;;;;;;5067973;28;20041;-91
2022/10/07 11:38:21;;;;;;;15.18;3.80;;;17.70;99.90;;;;;;5052405;28;20101;-91
2022/10/07 11:40:56;;;;;;;16.15;3.63;;;17.70;99.90;;;;;;5052534;28;20029;-91
2022/10/07 11:43:30;;;;;;;17.52;3.92;;;17.70;99.90;;;;;;5067382;28;20044;-91
2022/10/07 11:46:09;;;;;;;15.82;3.55;;;17.70;99.90;;;;;;5069164;28;20048;-91
2022/10/07 11:48:47;;;;;;;13.93;3.67;;;17.70;99.90;;;;;;5069489;28;20048;-91
2022/10/07 11:51:38;;;;;;;13.48;2.90;;;17.70;99.90;;;;;;5069027;28;20040;-91
2022/10/07 11:54:06;;;;;;;14.35;3.40;;;17.70;99.90;;;;;;5050695;28;20078;-91
2022/10/07 11:56:43;;;;;;;14.48;3.97;;;17.70;99.90;;;;;;5069402;28;20103;-91
2022/10/07 11:59:39;;;;;;;15.13;3.05;;;17.90;99.90;;;;;;5050667;28;20044;-91
2022/10/07 12:02:35;;;;;;;17.05;3.60;;;17.90;99.90;;;;;;5067669;28;20409;-91
2022/10/07 12:05:02;;;;;;;14.18;3.70;;;18.10;99.90;;;;;;5067517;28;20037;-91
2022/10/07 12:07:43;;;;;;;18.70;3.60;;;18.10;99.90;;;;;;5069284;28;20193;-91
2022/10/07 12:10:22;;;;;;;10.32;2.45;;;18.20;99.90;;;;;;5068160;28;20079;-91
2022/10/07 12:12:51;;;;;;;13.73;3.20;;;18.20;99.90;;;;;;5068974;28;20048;-91
2022/10/07 12:15:38;;;;;;;15.07;3.15;;;18.30;99.90;;;;;;5066617;28;20043;-91
2022/10/07 12:18:04;;;;;;;13.95;3.05;;;18.40;99.90;;;;;;5067645;28;20029;-91
2022/10/07 12:20:34;;;;;;;13.98;3.90;;;18.20;99.90;;;;;;5069370;28;20520;-91
2022/10/07 12:23:21;;;;;;;12.65;2.83;;;18.00;99.90;;;;;;5068804;28;20047;-91
2022/10/07 12:26:11;;;;;;;13.13;2.65;;;17.90;99.90;;;;;;5067800;28;20044;-91
2022/10/07 12:28:40;;;;;;;15.88;3.55;;;17.90;99.90;;;;;;5052371;28;20123;-91
2022/10/07 12:31:15;;;;;;;13.63;3.28;;;17.90;99.90;;;;;;5052734;28;20045;-91
2022/10/07 12:33:44;;;;;;;13.60;3.08;;;17.90;99.90;;;;;;5072033;28;20229;-91
2022/10/07 12:36:21;;;;;;;14.02;3.30;;;17.90;99.90;;;;;;5073421;28;20559;-90
2022/10/07 12:39:08;;;;;;;11.95;3.22;;;17.90;99.90;;;;;;5072854;28;20043;-90
2022/10/07 12:41:41;;;;;;;13.52;2.75;;;17.90;99.90;;;;;;5062763;28;20060;-91
2022/10/07 12:44:07;;;;;;;12.15;2.90;;;17.90;99.90;;;;;;5056438;28;20044;-91
2022/10/07 12:46:52;;;;;;;11.88;2.58;;;17.90;99.90;;;;;;5072184;28;20574;-90
2022/10/07 12:49:39;;;;;;;12.95;2.85;;;18.00;99.90;;;;;;5071113;28;20044;-91
2022/10/07 12:52:31;;;;;;;11.95;2.95;;;18.00;99.90;;;;;;5072476;28;20041;-90
2022/10/07 12:55:09;;;;;;;13.43;3.28;;;18.00;99.90;;;;;;5064481;28;20517;-91
2022/10/07 12:57:38;;;;;;;13.13;3.83;;;18.50;99.90;;;;;;5072814;28;20047;-91
2022/10/07 13:00:23;;;;;;;14.30;3.03;;;18.90;99.90;;;;;;5056332;28;20515;-91
2022/10/07 13:03:38;;;;;;;13.57;3.00;;;19.40;99.90;;;;;;5055756;28;20375;-91
2022/10/07 13:06:06;;;;;;;11.30;3.00;;;20.30;99.40;;;;;;5072776;28;20044;-91
2022/10/07 13:08:41;;;;;;;13.48;3.03;;;20.50;94.60;;;;;;5055660;28;20040;-90